Time;durP1;ratioP1;P1;durP2;ratioP2;P2;SDS_P1;SDS_P2;PMS_P1;PMS_P2;Temp;Humidity;BMP_temperature;BMP_pressure;BME280_temperature;BME280_humidity;BME280_pressure;Samples;Min_cycle;Max_cycle;Signal;HPM_P1;HPM_P2
2022/09/13 00:00:25;;;;;;;4.15;3.75;;;11.30;99.90;;;;;;5106158;28;20107;-63
2022/09/13 00:02:51;;;;;;;4.45;3.80;;;11.30;99.90;;;;;;5108998;28;20487;-63
2022/09/13 00:05:16;;;;;;;4.00;3.60;;;11.30;99.90;;;;;;5087176;28;20040;-63
2022/09/13 00:07:42;;;;;;;5.57;3.85;;;11.30;99.90;;;;;;5108035;28;20433;-63
2022/09/13 00:10:07;;;;;;;4.57;4.00;;;11.30;99.90;;;;;;5087356;28;20043;-63
2022/09/13 00:12:33;;;;;;;5.57;3.25;;;11.30;99.90;;;;;;5108169;28;20020;-63
2022/09/13 00:14:58;;;;;;;4.13;3.72;;;11.30;99.90;;;;;;5087229;28;20032;-63
2022/09/13 00:17:25;;;;;;;5.53;3.38;;;11.20;99.90;;;;;;5107940;28;20384;-63
2022/09/13 00:19:51;;;;;;;3.83;3.22;;;11.20;99.90;;;;;;5087031;28;20028;-63
2022/09/13 00:22:16;;;;;;;4.03;2.88;;;11.20;99.90;;;;;;5107847;28;20224;-62
2022/09/13 00:24:42;;;;;;;3.33;3.03;;;11.20;99.90;;;;;;5080803;28;20047;-63
2022/09/13 00:27:07;;;;;;;3.70;3.33;;;11.20;99.90;;;;;;5107806;28;20061;-63
2022/09/13 00:29:33;;;;;;;3.63;3.08;;;11.20;99.90;;;;;;5097301;28;20495;-63
2022/09/13 00:31:58;;;;;;;3.72;3.08;;;11.20;99.90;;;;;;5088796;28;20114;-63
2022/09/13 00:34:24;;;;;;;9.55;3.67;;;11.20;99.90;;;;;;5105839;28;20396;-63
2022/09/13 00:36:49;;;;;;;4.07;3.10;;;11.20;99.90;;;;;;5088978;28;20036;-63
2022/09/13 00:39:15;;;;;;;3.15;2.85;;;11.20;99.90;;;;;;5108242;28;20256;-63
2022/09/13 00:41:40;;;;;;;3.25;2.95;;;11.20;99.90;;;;;;5111907;28;20027;-63
2022/09/13 00:44:44;;;;;;;4.32;3.53;;;11.20;99.90;;;;;;5096292;28;20088;-63
2022/09/13 00:47:13;;;;;;;3.75;3.35;;;11.10;99.90;;;;;;5091986;28;20024;-62
2022/09/13 00:49:40;;;;;;;5.07;3.15;;;11.10;99.90;;;;;;5110074;28;20036;-62
2022/09/13 00:52:12;;;;;;;3.58;2.67;;;11.10;99.90;;;;;;5091894;28;20041;-62
2022/09/13 00:54:44;;;;;;;3.88;2.83;;;11.10;99.90;;;;;;5089973;28;20063;-62
2022/09/13 00:57:12;;;;;;;6.97;3.72;;;11.10;99.90;;;;;;5071294;28;20040;-62
2022/09/13 01:00:02;;;;;;;3.00;2.70;;;11.10;99.90;;;;;;5109519;28;20023;-62
2022/09/13 01:02:28;;;;;;;3.80;3.05;;;11.10;99.90;;;;;;5071343;28;20028;-62
2022/09/13 01:04:54;;;;;;;3.65;2.78;;;11.10;99.90;;;;;;5109238;28;20057;-62
2022/09/13 01:07:20;;;;;;;4.45;3.67;;;11.10;99.90;;;;;;5111588;28;20591;-63
2022/09/13 01:09:47;;;;;;;7.30;4.05;;;11.10;99.90;;;;;;5101168;28;20107;-63
2022/09/13 01:12:45;;;;;;;3.50;2.78;;;11.10;99.90;;;;;;5111747;28;20043;-62
2022/09/13 01:15:10;;;;;;;3.95;2.90;;;11.10;99.90;;;;;;5097622;28;20036;-62
2022/09/13 01:17:38;;;;;;;4.75;3.05;;;11.00;99.90;;;;;;5110196;28;20050;-62
2022/09/13 01:20:05;;;;;;;5.53;2.45;;;11.00;99.90;;;;;;5089855;28;20028;-62
2022/09/13 01:22:37;;;;;;;4.93;2.90;;;11.00;99.90;;;;;;5109666;28;20023;-62
2022/09/13 01:25:27;;;;;;;3.63;3.17;;;11.00;99.90;;;;;;5096586;28;20032;-62
2022/09/13 01:28:07;;;;;;;5.32;3.05;;;11.00;99.90;;;;;;5071474;28;20065;-63
2022/09/13 01:30:45;;;;;;;3.58;2.88;;;11.00;99.90;;;;;;5102721;28;20123;-63
2022/09/13 01:33:57;;;;;;;3.90;3.38;;;11.00;99.90;;;;;;5071008;28;20025;-68
2022/09/13 01:36:40;;;;;;;4.47;2.72;;;10.90;99.90;;;;;;5070943;28;20033;-70
2022/09/13 01:39:30;;;;;;;3.15;2.85;;;10.90;99.90;;;;;;5077573;28;20435;-63
2022/09/13 01:42:09;;;;;;;3.78;3.25;;;10.90;99.90;;;;;;5111293;28;20026;-63
2022/09/13 01:44:51;;;;;;;4.80;2.92;;;10.90;99.90;;;;;;5085473;28;20094;-63
2022/09/13 01:47:43;;;;;;;3.22;2.60;;;10.80;99.90;;;;;;5070515;28;20407;-63
2022/09/13 01:50:26;;;;;;;3.80;3.35;;;10.80;99.90;;;;;;5093696;28;20453;-63
2022/09/13 01:53:28;;;;;;;4.53;3.13;;;10.80;99.90;;;;;;5070583;28;20446;-63
2022/09/13 01:56:11;;;;;;;4.35;3.15;;;10.70;99.90;;;;;;5106707;28;20023;-63
2022/09/13 01:58:56;;;;;;;4.47;3.50;;;10.70;99.90;;;;;;5110939;28;20255;-63
2022/09/13 02:01:43;;;;;;;4.47;3.45;;;10.70;99.90;;;;;;5110946;27;20031;-63
2022/09/13 02:04:26;;;;;;;6.10;3.67;;;10.70;99.90;;;;;;5076490;28;20031;-62
2022/09/13 02:07:06;;;;;;;5.05;3.70;;;10.60;99.90;;;;;;5110588;28;20019;-63
2022/09/13 02:09:38;;;;;;;4.25;3.83;;;10.70;99.90;;;;;;5082917;28;20031;-63
2022/09/13 02:12:35;;;;;;;4.80;3.80;;;10.70;99.90;;;;;;5110955;28;20507;-63
2022/09/13 02:15:19;;;;;;;3.88;3.25;;;10.70;99.90;;;;;;5085651;28;20035;-63
2022/09/13 02:18:08;;;;;;;6.13;3.53;;;10.60;99.90;;;;;;5070231;28;20075;-63
2022/09/13 02:20:38;;;;;;;4.80;3.45;;;10.60;99.90;;;;;;5099476;28;20035;-63
2022/09/13 02:23:11;;;;;;;4.50;3.72;;;10.60;99.90;;;;;;5100976;28;20026;-64
2022/09/13 02:25:38;;;;;;;4.68;3.70;;;10.60;99.90;;;;;;5104160;28;20122;-63
2022/09/13 02:28:08;;;;;;;4.03;3.60;;;10.70;99.90;;;;;;5110303;28;20024;-63
2022/09/13 02:30:39;;;;;;;5.78;3.33;;;10.70;99.90;;;;;;5088213;28;20035;-64
2022/09/13 02:33:11;;;;;;;5.25;3.85;;;10.70;99.90;;;;;;5069993;28;20528;-63
2022/09/13 02:35:44;;;;;;;8.18;3.97;;;10.70;99.90;;;;;;5098763;28;20061;-63
2022/09/13 02:38:17;;;;;;;5.47;3.70;;;10.70;99.90;;;;;;5069681;28;20049;-63
2022/09/13 02:40:54;;;;;;;3.65;3.28;;;10.70;99.90;;;;;;5108693;28;20532;-63
2022/09/13 02:43:43;;;;;;;4.60;3.67;;;10.70;99.90;;;;;;5069565;28;20024;-63
2022/09/13 02:46:34;;;;;;;3.38;2.97;;;10.60;99.90;;;;;;5107130;28;20047;-64
2022/09/13 02:49:25;;;;;;;3.20;2.90;;;10.60;99.90;;;;;;5106671;28;20028;-63
2022/09/13 02:51:57;;;;;;;6.32;3.80;;;10.60;99.90;;;;;;5089641;28;20027;-63
2022/09/13 02:54:35;;;;;;;4.28;3.22;;;10.50;99.90;;;;;;5076805;28;20031;-63
2022/09/13 02:57:18;;;;;;;3.53;3.17;;;10.50;99.90;;;;;;5109772;28;20059;-63
2022/09/13 02:59:46;;;;;;;4.00;3.10;;;10.40;99.90;;;;;;5100630;28;20085;-63
2022/09/13 03:02:21;;;;;;;5.10;3.92;;;10.40;99.90;;;;;;5087373;28;20384;-63
2022/09/13 03:04:49;;;;;;;6.38;4.05;;;10.40;99.90;;;;;;5100111;28;20028;-63
2022/09/13 03:07:14;;;;;;;3.78;3.45;;;10.40;99.90;;;;;;5108960;28;20036;-63
2022/09/13 03:09:48;;;;;;;4.45;3.10;;;10.40;99.90;;;;;;5094722;28;20119;-63
2022/09/13 03:12:51;;;;;;;6.00;3.50;;;10.40;99.90;;;;;;5109487;28;20076;-63
2022/09/13 03:15:47;;;;;;;5.78;4.00;;;10.40;99.90;;;;;;5088308;28;20021;-63
2022/09/13 03:18:21;;;;;;;4.60;3.33;;;10.40;99.90;;;;;;5068862;28;20320;-63
2022/09/13 03:21:02;;;;;;;5.47;4.18;;;10.50;99.90;;;;;;5098400;28;20032;-63
2022/09/13 03:24:00;;;;;;;4.97;3.78;;;10.50;99.90;;;;;;5079274;28;20495;-63
2022/09/13 03:26:28;;;;;;;6.28;3.63;;;10.50;99.90;;;;;;5084036;28;20035;-63
2022/09/13 03:29:00;;;;;;;5.25;4.25;;;10.50;99.90;;;;;;5089194;28;20411;-63
2022/09/13 03:32:08;;;;;;;4.57;4.07;;;10.50;99.90;;;;;;5089084;28;20035;-63
2022/09/13 03:35:03;;;;;;;5.70;4.50;;;10.60;99.90;;;;;;5081223;28;20044;-63
2022/09/13 03:37:45;;;;;;;8.10;4.38;;;10.60;99.90;;;;;;5068324;28;20233;-63
2022/09/13 03:40:34;;;;;;;6.50;4.80;;;10.70;99.90;;;;;;5087063;28;20028;-63
2022/09/13 03:43:08;;;;;;;5.15;4.18;;;10.70;99.90;;;;;;5068767;28;20119;-63
2022/09/13 03:45:40;;;;;;;4.88;4.20;;;10.70;99.90;;;;;;5106745;28;20023;-63
2022/09/13 03:48:06;;;;;;;4.85;4.35;;;10.80;99.90;;;;;;5068711;28;20032;-63
2022/09/13 03:50:33;;;;;;;4.72;3.92;;;10.80;99.90;;;;;;5106138;28;20058;-63
2022/09/13 03:53:03;;;;;;;6.18;4.32;;;10.80;99.90;;;;;;5109064;28;20032;-63
2022/09/13 03:55:31;;;;;;;4.50;3.75;;;10.80;99.90;;;;;;5086374;28;20066;-63
2022/09/13 03:57:57;;;;;;;5.95;3.88;;;10.80;99.90;;;;;;5090585;28;20032;-63
2022/09/13 04:00:22;;;;;;;6.05;4.03;;;10.80;99.90;;;;;;5106570;28;20032;-62
2022/09/13 04:02:48;;;;;;;4.97;3.90;;;10.80;99.90;;;;;;5109084;28;20149;-63
2022/09/13 04:05:14;;;;;;;5.22;3.72;;;10.80;99.90;;;;;;5097274;28;20501;-63
2022/09/13 04:07:39;;;;;;;6.10;3.88;;;10.80;99.90;;;;;;5088164;28;20487;-63
2022/09/13 04:10:05;;;;;;;4.82;4.15;;;10.70;99.90;;;;;;5095221;28;20047;-63
2022/09/13 04:12:31;;;;;;;5.15;4.47;;;10.80;99.90;;;;;;5109142;28;20039;-63
2022/09/13 04:14:56;;;;;;;8.40;4.55;;;10.80;99.90;;;;;;5098398;28;20015;-63
2022/09/13 04:17:22;;;;;;;5.22;4.30;;;10.80;99.90;;;;;;5113153;28;20103;-64
2022/09/13 04:19:48;;;;;;;6.63;3.40;;;10.90;99.90;;;;;;5096792;28;20027;-63
2022/09/13 04:22:13;;;;;;;4.93;3.45;;;10.90;99.90;;;;;;5111692;28;20106;-65
2022/09/13 04:24:39;;;;;;;4.65;3.67;;;10.90;99.90;;;;;;5104769;28;20023;-63
2022/09/13 04:27:05;;;;;;;4.43;3.83;;;10.90;99.90;;;;;;5113108;28;20193;-63
2022/09/13 04:29:31;;;;;;;6.20;4.70;;;11.00;99.90;;;;;;5094279;28;20027;-63
2022/09/13 04:31:56;;;;;;;4.68;4.28;;;11.00;99.90;;;;;;5112577;28;20081;-63
2022/09/13 04:34:22;;;;;;;9.98;4.97;;;11.00;99.90;;;;;;5096710;28;20047;-63
2022/09/13 04:36:51;;;;;;;5.47;4.88;;;11.10;99.90;;;;;;5112788;28;20547;-63
2022/09/13 04:39:16;;;;;;;10.10;4.78;;;11.10;99.90;;;;;;5101013;28;20032;-62
2022/09/13 04:41:45;;;;;;;5.50;4.53;;;11.10;99.90;;;;;;5112849;28;20027;-63
2022/09/13 04:44:11;;;;;;;5.78;4.82;;;11.10;99.90;;;;;;5092184;27;20069;-62
2022/09/13 04:46:37;;;;;;;6.85;4.65;;;11.20;99.90;;;;;;5112702;28;20035;-63
2022/09/13 04:49:02;;;;;;;5.38;4.63;;;11.20;99.90;;;;;;5086355;28;20396;-63
2022/09/13 04:51:28;;;;;;;6.07;4.60;;;11.20;99.90;;;;;;5089773;28;20452;-64
2022/09/13 04:53:55;;;;;;;4.72;4.25;;;11.20;99.90;;;;;;5110257;28;20031;-63
2022/09/13 04:56:22;;;;;;;4.35;3.80;;;11.30;99.90;;;;;;5093945;28;20026;-63
2022/09/13 04:58:50;;;;;;;4.90;3.75;;;11.30;99.90;;;;;;5111233;28;20076;-63
2022/09/13 05:01:16;;;;;;;6.90;4.90;;;11.40;99.90;;;;;;5089242;28;20040;-64
2022/09/13 05:03:41;;;;;;;6.00;4.90;;;11.40;99.90;;;;;;5110566;28;20361;-63
2022/09/13 05:06:09;;;;;;;4.38;3.92;;;11.50;99.90;;;;;;5089014;28;20491;-63
2022/09/13 05:08:35;;;;;;;6.28;4.10;;;11.50;99.90;;;;;;5110506;28;20103;-63
2022/09/13 05:11:01;;;;;;;4.88;4.28;;;11.60;99.90;;;;;;5089081;28;20407;-63
2022/09/13 05:13:27;;;;;;;4.45;3.22;;;11.60;99.90;;;;;;5110242;28;20027;-63
2022/09/13 05:15:57;;;;;;;4.45;4.00;;;11.60;99.90;;;;;;5087515;27;20024;-63
2022/09/13 05:18:26;;;;;;;5.55;3.92;;;11.70;99.90;;;;;;5107800;28;20027;-64
2022/09/13 05:20:55;;;;;;;4.18;3.78;;;11.80;99.90;;;;;;5086964;28;20027;-64
2022/09/13 05:23:22;;;;;;;6.10;3.97;;;11.80;99.90;;;;;;5093857;28;20499;-64
2022/09/13 05:26:02;;;;;;;5.53;4.05;;;11.90;99.90;;;;;;5106805;28;20413;-64
2022/09/13 05:28:30;;;;;;;7.50;5.00;;;12.00;99.90;;;;;;5069910;28;20025;-64
2022/09/13 05:30:57;;;;;;;6.28;4.80;;;12.10;99.90;;;;;;5107508;28;20035;-64
2022/09/13 05:33:24;;;;;;;4.78;3.50;;;12.10;99.90;;;;;;5110218;28;20027;-64
2022/09/13 05:35:50;;;;;;;4.70;4.03;;;12.20;99.90;;;;;;5088408;28;20527;-64
2022/09/13 05:38:15;;;;;;;4.72;3.60;;;12.30;99.90;;;;;;5109516;28;20487;-63
2022/09/13 05:40:41;;;;;;;5.10;4.05;;;12.30;99.90;;;;;;5099492;28;20111;-64
2022/09/13 05:43:06;;;;;;;4.20;3.80;;;12.40;99.90;;;;;;5090332;28;20032;-64
2022/09/13 05:45:32;;;;;;;6.13;3.70;;;12.50;99.90;;;;;;5107289;28;20028;-64
2022/09/13 05:47:58;;;;;;;5.28;4.57;;;12.60;99.90;;;;;;5090260;28;20399;-64
2022/09/13 05:50:24;;;;;;;7.57;4.18;;;12.60;99.90;;;;;;5107373;28;20119;-61
2022/09/13 05:52:53;;;;;;;3.80;3.33;;;12.60;99.90;;;;;;5090206;28;20106;-61
2022/09/13 05:55:20;;;;;;;6.05;3.80;;;12.70;99.90;;;;;;5107038;28;20027;-61
2022/09/13 05:57:45;;;;;;;6.30;3.90;;;12.70;99.90;;;;;;5109584;28;20038;-61
2022/09/13 06:00:11;;;;;;;4.32;3.78;;;12.70;99.90;;;;;;5094554;28;20035;-61
2022/09/13 06:02:37;;;;;;;3.50;3.17;;;12.80;99.90;;;;;;5109776;28;20030;-61
2022/09/13 06:05:02;;;;;;;4.63;3.75;;;12.80;99.90;;;;;;5092871;28;20118;-61
2022/09/13 06:07:28;;;;;;;5.82;3.83;;;12.90;99.90;;;;;;5109626;28;20059;-61
2022/09/13 06:09:53;;;;;;;3.72;3.33;;;12.90;99.90;;;;;;5091247;28;20036;-56
2022/09/13 06:12:19;;;;;;;4.80;3.47;;;12.90;99.90;;;;;;5109791;28;20020;-61
2022/09/13 06:14:44;;;;;;;3.97;3.10;;;13.00;99.90;;;;;;5089236;28;20028;-61
2022/09/13 06:17:10;;;;;;;6.78;3.92;;;13.10;99.90;;;;;;5074552;28;20028;-60
2022/09/13 06:19:35;;;;;;;5.45;3.58;;;13.10;99.90;;;;;;5102908;28;20020;-61
2022/09/13 06:22:01;;;;;;;4.50;3.40;;;13.10;99.90;;;;;;5109491;28;20019;-61
2022/09/13 06:24:26;;;;;;;5.60;3.40;;;13.10;99.90;;;;;;5085930;28;20035;-61
2022/09/13 06:26:52;;;;;;;6.95;3.83;;;13.10;99.90;;;;;;5106698;28;20499;-61
2022/09/13 06:29:18;;;;;;;5.65;3.50;;;13.20;99.90;;;;;;5089323;28;20028;-60
2022/09/13 06:31:44;;;;;;;5.63;3.90;;;13.30;99.90;;;;;;5106521;28;20024;-61
2022/09/13 06:34:16;;;;;;;3.63;3.10;;;13.30;99.90;;;;;;5104987;28;20040;-61
2022/09/13 06:36:42;;;;;;;5.82;4.20;;;13.30;99.90;;;;;;5087158;28;20103;-61
2022/09/13 06:39:07;;;;;;;5.82;3.70;;;13.40;99.90;;;;;;5108290;28;20123;-61
2022/09/13 06:41:33;;;;;;;4.65;3.85;;;13.40;99.90;;;;;;5087239;28;20040;-61
2022/09/13 06:44:00;;;;;;;3.75;3.45;;;13.40;99.90;;;;;;5092698;28;20050;-61
2022/09/13 06:46:28;;;;;;;5.60;3.65;;;13.40;99.90;;;;;;5085948;28;20455;-61
2022/09/13 06:48:54;;;;;;;4.65;4.25;;;13.50;99.90;;;;;;5098211;28;20097;-61
2022/09/13 06:51:22;;;;;;;6.18;4.40;;;13.50;99.90;;;;;;5086497;28;20020;-60
2022/09/13 06:53:48;;;;;;;4.88;4.38;;;13.50;99.90;;;;;;5108353;28;20039;-61
2022/09/13 06:56:19;;;;;;;5.03;4.03;;;13.50;99.90;;;;;;5085990;28;20139;-60
2022/09/13 06:58:47;;;;;;;5.18;4.18;;;13.50;99.90;;;;;;5089350;28;20119;-60
2022/09/13 07:01:22;;;;;;;4.85;3.67;;;13.50;99.90;;;;;;5086366;28;20412;-61
2022/09/13 07:03:58;;;;;;;5.28;4.07;;;13.50;99.90;;;;;;5086459;28;20036;-61
2022/09/13 07:06:26;;;;;;;4.70;3.60;;;13.50;99.90;;;;;;5095109;28;20398;-61
2022/09/13 07:08:53;;;;;;;6.60;3.72;;;13.50;99.90;;;;;;5108061;28;20407;-61
2022/09/13 07:11:21;;;;;;;4.88;4.07;;;13.50;99.90;;;;;;5086881;28;20040;-61
2022/09/13 07:13:48;;;;;;;4.65;3.60;;;13.50;99.90;;;;;;5108202;28;20036;-61
2022/09/13 07:16:13;;;;;;;4.70;4.22;;;13.60;99.90;;;;;;5086436;28;20284;-61
2022/09/13 07:18:39;;;;;;;5.82;4.63;;;13.60;99.90;;;;;;5107688;28;20036;-61
2022/09/13 07:21:07;;;;;;;3.75;3.45;;;13.70;99.90;;;;;;5085209;28;20391;-61
2022/09/13 07:23:34;;;;;;;4.20;3.80;;;13.80;99.90;;;;;;5091414;28;20082;-61
2022/09/13 07:26:01;;;;;;;6.35;4.05;;;14.00;99.90;;;;;;5106021;28;20063;-61
2022/09/13 07:28:33;;;;;;;5.82;4.57;;;14.10;99.90;;;;;;5088185;28;20024;-61
2022/09/13 07:31:09;;;;;;;5.00;4.43;;;14.20;99.90;;;;;;5106032;28;20038;-61
2022/09/13 07:33:36;;;;;;;7.18;4.72;;;14.30;99.90;;;;;;5087555;28;20057;-53
2022/09/13 07:36:05;;;;;;;6.22;5.03;;;14.40;99.90;;;;;;5105345;28;20410;-52
2022/09/13 07:38:31;;;;;;;6.55;5.60;;;14.40;99.90;;;;;;5087948;28;20258;-64
2022/09/13 07:40:58;;;;;;;5.35;4.22;;;14.50;99.90;;;;;;5105570;28;20023;-50
2022/09/13 07:43:24;;;;;;;4.80;3.58;;;14.60;99.90;;;;;;5087976;28;20391;-53
2022/09/13 07:45:57;;;;;;;4.78;4.25;;;14.80;99.90;;;;;;5105328;28;20102;-48
2022/09/13 07:48:23;;;;;;;5.70;4.53;;;14.80;99.90;;;;;;5087617;28;20310;-50
2022/09/13 07:51:01;;;;;;;5.88;4.82;;;14.90;99.90;;;;;;5105177;28;20272;-47
2022/09/13 07:53:27;;;;;;;5.63;4.75;;;15.00;99.90;;;;;;5067676;28;20052;-52
2022/09/13 07:55:58;;;;;;;5.00;4.40;;;15.00;99.90;;;;;;5104706;28;20039;-47
2022/09/13 07:58:24;;;;;;;6.55;4.88;;;15.00;99.90;;;;;;5067323;28;20392;-49
2022/09/13 08:00:49;;;;;;;7.65;4.95;;;15.10;99.90;;;;;;5105004;28;20032;-50
2022/09/13 08:03:15;;;;;;;8.57;6.65;;;15.10;99.90;;;;;;5087904;28;20648;-47
2022/09/13 08:05:40;;;;;;;10.48;6.70;;;15.10;99.90;;;;;;5105207;28;20024;-52
2022/09/13 08:08:06;;;;;;;7.80;6.15;;;15.10;99.90;;;;;;5107911;28;20118;-47
2022/09/13 08:10:33;;;;;;;6.47;5.45;;;15.20;99.90;;;;;;5091412;28;20031;-49
2022/09/13 08:12:59;;;;;;;6.53;5.38;;;15.20;99.90;;;;;;5107857;28;20057;-48
2022/09/13 08:15:25;;;;;;;6.65;5.00;;;15.20;99.90;;;;;;5090172;28;20036;-48
2022/09/13 08:17:52;;;;;;;6.50;5.60;;;15.20;99.90;;;;;;5108084;28;20034;-47
2022/09/13 08:20:18;;;;;;;7.43;5.60;;;15.20;99.90;;;;;;5087603;28;20043;-49
2022/09/13 08:22:44;;;;;;;6.40;5.30;;;15.20;99.90;;;;;;5101093;28;20051;-52
2022/09/13 08:25:10;;;;;;;7.25;5.65;;;15.30;99.90;;;;;;5081011;28;20012;-48
2022/09/13 08:27:35;;;;;;;5.53;4.55;;;15.40;99.90;;;;;;5107710;28;20020;-49
2022/09/13 08:30:01;;;;;;;6.88;5.75;;;15.60;99.90;;;;;;5086542;28;20024;-47
2022/09/13 08:32:26;;;;;;;6.25;5.65;;;15.90;99.90;;;;;;5107653;28;20016;-51
2022/09/13 08:34:52;;;;;;;6.93;5.03;;;16.10;99.90;;;;;;5097025;28;20052;-50
2022/09/13 08:37:17;;;;;;;6.90;5.50;;;16.40;99.90;;;;;;5085870;28;20032;-49
2022/09/13 08:39:43;;;;;;;6.68;4.95;;;16.70;99.90;;;;;;5107008;28;20032;-51
2022/09/13 08:42:22;;;;;;;7.25;4.80;;;16.90;99.90;;;;;;5086034;28;20538;-52
2022/09/13 08:44:53;;;;;;;7.70;4.88;;;17.10;99.90;;;;;;5107623;28;20031;-47
2022/09/13 08:47:39;;;;;;;5.00;4.15;;;17.40;99.90;;;;;;5104387;28;20362;-47
2022/09/13 08:50:17;;;;;;;6.40;5.68;;;17.60;99.90;;;;;;5065875;28;20555;-51
2022/09/13 08:52:57;;;;;;;12.40;5.82;;;18.00;99.90;;;;;;5107550;28;20100;-51
2022/09/13 08:55:41;;;;;;;5.40;4.82;;;18.30;99.90;;;;;;5070678;28;20035;-48
2022/09/13 08:58:35;;;;;;;5.55;4.07;;;18.60;99.90;;;;;;5106784;28;20044;-52
2022/09/13 09:01:12;;;;;;;5.68;4.55;;;18.90;99.90;;;;;;5082688;28;20030;-49
2022/09/13 09:03:45;;;;;;;6.20;4.55;;;19.20;99.90;;;;;;5070311;28;20511;-48
2022/09/13 09:06:13;;;;;;;7.28;4.60;;;19.30;99.90;;;;;;5086853;28;20345;-52
2022/09/13 09:08:45;;;;;;;5.32;4.82;;;19.30;99.90;;;;;;5090668;28;20110;-50
2022/09/13 09:11:52;;;;;;;6.47;4.47;;;19.30;99.90;;;;;;5086737;28;20020;-51
2022/09/13 09:14:30;;;;;;;3.85;3.55;;;19.40;99.90;;;;;;5069918;28;20055;-49
2022/09/13 09:17:01;;;;;;;5.45;4.53;;;19.60;99.90;;;;;;5098897;28;20188;-51
2022/09/13 09:19:36;;;;;;;5.32;4.82;;;19.70;99.90;;;;;;5069801;28;20323;-48
2022/09/13 09:22:12;;;;;;;4.80;4.10;;;19.90;99.90;;;;;;5100380;28;20035;-51
2022/09/13 09:24:43;;;;;;;4.95;3.60;;;20.00;99.90;;;;;;5074317;28;20426;-47
2022/09/13 09:27:15;;;;;;;4.20;3.67;;;20.20;99.90;;;;;;5100595;28;20038;-51
2022/09/13 09:29:45;;;;;;;5.72;4.15;;;20.40;99.90;;;;;;5069880;28;20032;-50
2022/09/13 09:32:48;;;;;;;4.50;3.70;;;20.50;99.90;;;;;;5108407;28;20032;-50
2022/09/13 09:35:50;;;;;;;5.63;3.95;;;20.60;96.90;;;;;;5107852;27;20063;-50
2022/09/13 09:38:40;;;;;;;4.30;3.55;;;20.70;95.30;;;;;;5110434;28;20112;-52
2022/09/13 09:41:25;;;;;;;4.38;3.95;;;20.90;94.60;;;;;;5085162;28;20085;-50
2022/09/13 09:44:08;;;;;;;4.43;3.88;;;21.00;98.80;;;;;;5089876;28;20152;-54
2022/09/13 09:46:37;;;;;;;5.05;4.55;;;21.10;96.50;;;;;;5108063;28;20138;-53
2022/09/13 09:50:07;;;;;;;5.13;4.50;;;21.30;98.20;;;;;;5090043;28;20165;-50
2022/09/13 09:51:56;;;;;;;4.25;3.78;;;21.40;96.80;;;;;;5095849;28;20499;-54
2022/09/13 09:54:24;;;;;;;4.30;3.90;;;21.60;96.80;;;;;;5089963;28;20043;-49
2022/09/13 09:56:53;;;;;;;5.05;4.13;;;21.70;95.40;;;;;;5106560;28;20116;-52
2022/09/13 09:59:32;;;;;;;5.95;4.47;;;21.90;94.70;;;;;;5109839;28;20015;-49
2022/09/13 10:02:10;;;;;;;4.85;4.25;;;22.00;90.60;;;;;;5087565;27;20038;-52
2022/09/13 10:04:36;;;;;;;5.13;4.18;;;22.10;90.00;;;;;;5069540;28;20032;-51
2022/09/13 10:07:26;;;;;;;3.53;3.22;;;22.10;88.80;;;;;;5106756;28;20506;-49
2022/09/13 10:10:02;;;;;;;3.88;3.58;;;22.10;82.10;;;;;;5109646;28;20425;-49
2022/09/13 10:12:31;;;;;;;3.90;3.25;;;22.30;90.30;;;;;;5102766;28;20526;-48
2022/09/13 10:15:16;;;;;;;4.32;3.85;;;22.30;89.90;;;;;;5109508;28;20038;-48
2022/09/13 10:17:41;;;;;;;4.63;4.22;;;22.50;80.40;;;;;;5107293;28;20057;-47
2022/09/13 10:20:20;;;;;;;4.63;4.18;;;22.60;86.60;;;;;;5109294;28;20084;-49
2022/09/13 10:23:14;;;;;;;3.85;3.25;;;22.70;83.30;;;;;;5068900;28;20153;-48
2022/09/13 10:25:42;;;;;;;4.40;3.65;;;22.80;73.90;;;;;;5104879;28;20035;-53
2022/09/13 10:28:15;;;;;;;4.63;3.80;;;22.80;84.20;;;;;;5087148;28;20289;-48
2022/09/13 10:30:56;;;;;;;4.38;3.33;;;22.80;82.10;;;;;;5088822;28;20032;-53
2022/09/13 10:33:32;;;;;;;4.95;3.92;;;22.70;77.70;;;;;;5109653;28;20491;-53
2022/09/13 10:36:01;;;;;;;5.10;4.45;;;22.70;82.90;;;;;;5076326;28;20052;-50
2022/09/13 10:38:35;;;;;;;5.07;4.57;;;22.70;79.90;;;;;;5097894;28;20063;-51
2022/09/13 10:41:04;;;;;;;5.30;3.58;;;22.60;77.40;;;;;;5077129;28;20548;-49
2022/09/13 10:43:32;;;;;;;6.53;4.13;;;22.60;80.10;;;;;;5108234;28;20039;-50
2022/09/13 10:45:59;;;;;;;4.63;3.95;;;22.50;78.00;;;;;;5091795;28;20019;-47
2022/09/13 10:48:28;;;;;;;5.30;4.47;;;22.40;77.20;;;;;;5093280;28;20103;-54
2022/09/13 10:51:04;;;;;;;5.63;4.10;;;22.60;77.30;;;;;;5090870;28;20022;-49
2022/09/13 10:53:41;;;;;;;4.68;3.83;;;22.70;73.10;;;;;;5109068;28;20110;-53
2022/09/13 10:56:19;;;;;;;4.45;3.47;;;22.80;72.70;;;;;;5092405;28;20028;-52
2022/09/13 10:58:45;;;;;;;6.70;4.45;;;22.90;69.50;;;;;;5109129;28;20028;-52
2022/09/13 11:01:19;;;;;;;6.68;3.83;;;23.00;71.70;;;;;;5093008;28;20527;-52
2022/09/13 11:04:04;;;;;;;5.35;4.05;;;23.10;67.50;;;;;;5108995;28;20039;-51
2022/09/13 11:06:58;;;;;;;5.75;3.70;;;23.20;68.20;;;;;;5083699;28;20023;-49
2022/09/13 11:09:35;;;;;;;8.52;4.40;;;23.40;66.20;;;;;;5068397;28;20485;-52
2022/09/13 11:12:39;;;;;;;4.57;4.13;;;23.50;67.90;;;;;;5092187;28;20060;-52
2022/09/13 11:15:31;;;;;;;4.72;4.03;;;23.60;61.20;;;;;;5068374;28;20017;-50
2022/09/13 11:18:14;;;;;;;4.65;4.15;;;23.70;65.40;;;;;;5068024;28;20029;-52
2022/09/13 11:21:19;;;;;;;6.00;3.95;;;23.80;65.40;;;;;;5068783;28;20028;-50
2022/09/13 11:23:56;;;;;;;4.68;3.78;;;23.80;61.10;;;;;;5088237;28;20035;-50
2022/09/13 11:26:29;;;;;;;5.97;4.15;;;23.70;65.40;;;;;;5080269;28;20020;-51
2022/09/13 11:29:01;;;;;;;7.10;4.25;;;23.50;65.80;;;;;;5108665;28;20063;-52
2022/09/13 11:31:54;;;;;;;4.53;3.85;;;23.20;65.70;;;;;;5081215;28;20031;-54
2022/09/13 11:34:27;;;;;;;5.72;4.07;;;23.10;65.80;;;;;;5078156;28;20039;-69
2022/09/13 11:37:04;;;;;;;4.30;3.90;;;22.90;67.30;;;;;;5104784;28;20447;-68
2022/09/13 11:40:17;;;;;;;4.32;3.88;;;22.80;67.40;;;;;;5067671;28;20068;-68
2022/09/13 11:42:53;;;;;;;4.20;3.80;;;22.70;65.00;;;;;;5084094;28;20035;-67
2022/09/13 11:45:29;;;;;;;5.15;4.35;;;22.50;67.50;;;;;;5108433;28;20020;-67
2022/09/13 11:48:27;;;;;;;4.72;4.20;;;22.40;68.80;;;;;;5104819;28;20047;-68
2022/09/13 11:51:07;;;;;;;4.35;3.58;;;22.30;68.10;;;;;;5070063;28;20083;-66
2022/09/13 11:53:55;;;;;;;5.43;4.20;;;22.30;70.10;;;;;;5108322;28;20036;-64
2022/09/13 11:56:31;;;;;;;6.10;4.45;;;22.20;70.50;;;;;;5077699;28;20039;-64
2022/09/13 11:59:11;;;;;;;;;;;22.10;72.00;;;;;;5108675;28;20020;-64
2022/09/13 12:01:54;;;;;;;4.43;3.65;;;22.00;72.00;;;;;;5081609;28;19908;-64
2022/09/13 12:04:29;;;;;;;6.35;4.07;;;21.90;74.20;;;;;;5067558;28;20508;-64
2022/09/13 12:07:01;;;;;;;4.70;4.10;;;21.70;75.20;;;;;;5086577;28;20032;-65
2022/09/13 12:09:46;;;;;;;7.45;3.97;;;21.60;76.10;;;;;;5067513;28;20021;-65
2022/09/13 12:12:13;;;;;;;6.15;4.28;;;21.50;77.00;;;;;;5091345;28;20026;-65
2022/09/13 12:14:51;;;;;;;5.63;4.10;;;21.30;77.50;;;;;;5107591;28;20028;-64
2022/09/13 12:17:28;;;;;;;5.45;3.80;;;21.30;78.80;;;;;;5092104;28;20028;-65
2022/09/13 12:19:59;;;;;;;6.60;4.55;;;21.20;79.90;;;;;;5067502;28;20024;-65
2022/09/13 12:22:28;;;;;;;6.53;4.35;;;21.10;80.50;;;;;;5093852;28;20056;-60
2022/09/13 12:24:57;;;;;;;7.63;5.28;;;21.00;81.40;;;;;;5098128;28;20607;-65
2022/09/13 12:27:30;;;;;;;4.78;4.22;;;20.90;81.90;;;;;;5085386;28;20035;-65
2022/09/13 12:30:05;;;;;;;4.72;4.25;;;20.80;83.50;;;;;;5067462;28;20040;-65
2022/09/13 12:32:31;;;;;;;4.82;4.10;;;20.70;85.60;;;;;;5105218;28;20484;-65
2022/09/13 12:35:12;;;;;;;4.70;4.15;;;20.70;85.60;;;;;;5098807;28;20624;-65
2022/09/13 12:37:46;;;;;;;6.00;4.47;;;20.60;89.70;;;;;;5100360;28;20036;-65
2022/09/13 12:40:48;;;;;;;4.57;4.18;;;20.40;89.30;;;;;;5111625;28;20028;-65
2022/09/13 12:43:44;;;;;;;6.22;4.30;;;20.40;91.60;;;;;;5070925;28;20071;-64
2022/09/13 12:46:31;;;;;;;4.32;3.85;;;20.30;92.30;;;;;;5075724;28;20106;-65
2022/09/13 12:49:18;;;;;;;5.03;4.18;;;20.20;91.40;;;;;;5112589;28;20019;-65
2022/09/13 12:52:31;;;;;;;6.00;5.18;;;20.20;92.50;;;;;;5098529;28;20035;-65
2022/09/13 12:55:17;;;;;;;6.05;4.60;;;20.10;97.20;;;;;;5087116;28;20036;-65
2022/09/13 12:57:47;;;;;;;;;;;20.00;97.00;;;;;;5088323;28;20036;-66
2022/09/13 13:00:25;;;;;;;6.20;4.13;;;19.90;99.90;;;;;;5090980;28;19908;-65
2022/09/13 13:03:00;;;;;;;6.65;5.43;;;19.80;99.40;;;;;;5110522;28;20026;-65
2022/09/13 13:05:42;;;;;;;6.43;5.43;;;19.80;99.60;;;;;;5071525;28;20025;-65
2022/09/13 13:08:19;;;;;;;7.22;5.50;;;19.80;99.90;;;;;;5106517;28;20027;-65
2022/09/13 13:11:02;;;;;;;5.90;4.55;;;19.80;99.90;;;;;;5112104;28;20035;-65
2022/09/13 13:13:35;;;;;;;6.55;5.28;;;20.00;99.90;;;;;;5070350;28;20032;-66
2022/09/13 13:16:06;;;;;;;8.23;5.80;;;20.20;99.60;;;;;;5109763;28;20734;-66
2022/09/13 13:18:44;;;;;;;6.68;5.15;;;20.30;99.40;;;;;;5111810;28;20036;-65
2022/09/13 13:21:24;;;;;;;5.88;4.93;;;20.40;98.80;;;;;;5073682;28;20075;-65